createdAt,value
2018-09-03T00:01:49.228Z,14.18
2018-09-03T00:04:18.474Z,14.28
2018-09-03T00:06:47.319Z,14.85
2018-09-03T00:09:15.932Z,14.47
2018-09-03T00:11:44.795Z,14.07
2018-09-03T00:14:13.620Z,17.27
2018-09-03T00:16:42.328Z,14.30
2018-09-03T00:19:11.255Z,15.60
2018-09-03T00:21:40.061Z,16.65
2018-09-03T00:24:08.665Z,13.62
2018-09-03T00:26:37.364Z,15.05
2018-09-03T00:29:06.192Z,14.45
2018-09-03T00:31:40.311Z,14.87
2018-09-03T00:34:14.864Z,13.18
2018-09-03T00:36:49.468Z,13.55
2018-09-03T00:39:23.169Z,14.03
2018-09-03T00:41:57.796Z,12.82
2018-09-03T00:44:31.677Z,13.32
2018-09-03T00:47:02.066Z,14.28
2018-09-03T00:49:31.191Z,12.10
2018-09-03T00:52:00.221Z,14.15
2018-09-03T00:54:29.216Z,12.35
2018-09-03T00:56:58.080Z,13.80
2018-09-03T00:59:26.721Z,15.20
2018-09-03T01:01:55.397Z,12.73
2018-09-03T01:04:24.080Z,12.85
2018-09-03T01:06:52.951Z,12.60
2018-09-03T01:09:21.756Z,12.85
2018-09-03T01:11:50.451Z,12.07
2018-09-03T01:14:19.058Z,12.20
2018-09-03T01:16:47.832Z,12.73
2018-09-03T01:19:16.547Z,13.40
2018-09-03T01:21:45.012Z,13.58
2018-09-03T01:24:13.719Z,14.68
2018-09-03T01:26:42.438Z,10.75
2018-09-03T01:29:11.111Z,11.43
2018-09-03T01:31:39.935Z,10.20
2018-09-03T01:34:08.557Z,12.20
2018-09-03T01:36:37.321Z,13.75
2018-09-03T01:39:07.876Z,13.28
2018-09-03T01:41:37.128Z,12.80
2018-09-03T01:44:06.179Z,13.38
2018-09-03T01:46:35.108Z,12.18
2018-09-03T01:49:03.601Z,11.73
2018-09-03T01:51:32.255Z,14.03
2018-09-03T01:54:00.965Z,12.45
2018-09-03T01:56:29.769Z,10.40
2018-09-03T01:58:58.550Z,13.32
2018-09-03T02:01:27.226Z,11.70
2018-09-03T02:03:56.222Z,13.53
2018-09-03T02:06:24.573Z,10.10
2018-09-03T02:08:53.245Z,12.03
2018-09-03T02:11:22.055Z,11.68
2018-09-03T02:13:50.720Z,14.35
2018-09-03T02:16:19.172Z,12.82
2018-09-03T02:18:48.008Z,11.88
2018-09-03T02:21:16.729Z,13.50
2018-09-03T02:23:45.725Z,13.60
2018-09-03T02:26:14.458Z,12.95
2018-09-03T02:28:43.220Z,11.65
2018-09-03T02:31:12.224Z,14.78
2018-09-03T02:33:40.880Z,13.13
2018-09-03T02:36:09.433Z,13.08
2018-09-03T02:38:38.377Z,13.70
2018-09-03T02:41:07.209Z,13.30
2018-09-03T02:43:35.812Z,12.25
2018-09-03T02:46:04.875Z,12.25
2018-09-03T02:48:33.272Z,13.80
2018-09-03T02:51:03.437Z,14.65
2018-09-03T02:53:31.708Z,13.75
2018-09-03T02:56:00.553Z,12.65
2018-09-03T02:58:29.130Z,13.58
2018-09-03T03:00:58.205Z,11.10
2018-09-03T03:03:27.056Z,15.03
2018-09-03T03:05:55.603Z,13.62
2018-09-03T03:08:24.971Z,13.62
2018-09-03T03:10:54.420Z,10.25
2018-09-03T03:13:22.925Z,11.28
2018-09-03T03:15:51.628Z,10.40
2018-09-03T03:18:20.238Z,12.18
2018-09-03T03:20:48.924Z,12.20
2018-09-03T03:23:17.472Z,14.15
2018-09-03T03:28:24.224Z,11.60
2018-09-03T03:30:52.929Z,12.85
2018-09-03T03:33:21.832Z,13.20
2018-09-03T03:35:50.358Z,10.93
2018-09-03T03:38:19.145Z,13.62
2018-09-03T03:40:48.084Z,12.45
2018-09-03T03:43:18.159Z,12.23
2018-09-03T03:45:46.997Z,14.05
2018-09-03T03:48:15.801Z,12.25
2018-09-03T03:50:44.456Z,12.47
2018-09-03T03:53:13.301Z,15.15
2018-09-03T03:55:41.937Z,14.90
2018-09-03T03:58:10.563Z,16.60
2018-09-03T04:00:39.288Z,15.80
2018-09-03T04:03:08.237Z,16.00
2018-09-03T04:05:36.885Z,17.70
2018-09-03T04:08:05.677Z,14.85
2018-09-03T04:10:34.401Z,13.43
2018-09-03T04:13:06.143Z,15.32
2018-09-03T04:15:35.863Z,13.83
2018-09-03T04:18:05.227Z,13.80
2018-09-03T04:20:33.780Z,15.23
2018-09-03T04:23:02.452Z,13.80
2018-09-03T04:25:31.220Z,13.83
2018-09-03T04:28:00.407Z,16.05
2018-09-03T04:30:28.922Z,12.20
2018-09-03T04:32:57.652Z,14.43
2018-09-03T04:35:26.401Z,15.15
2018-09-03T04:37:55.231Z,12.88
2018-09-03T04:40:23.960Z,13.08
2018-09-03T04:42:52.685Z,13.58
2018-09-03T04:45:21.449Z,15.15
2018-09-03T04:47:50.337Z,15.38
2018-09-03T04:50:21.320Z,11.83
2018-09-03T04:52:50.002Z,16.15
2018-09-03T04:55:18.470Z,14.38
2018-09-03T04:57:47.049Z,16.82
2018-09-03T05:00:15.964Z,17.27
2018-09-03T05:02:45.000Z,15.53
2018-09-03T05:05:13.325Z,17.95
2018-09-03T05:07:42.250Z,17.07
2018-09-03T05:10:10.930Z,15.85
2018-09-03T05:12:40.814Z,17.35
2018-09-03T05:15:09.148Z,16.42
2018-09-03T05:17:37.901Z,16.40
2018-09-03T05:20:06.512Z,15.60
2018-09-03T05:22:35.424Z,15.50
2018-09-03T05:25:03.818Z,17.10
2018-09-03T05:27:32.660Z,15.58
2018-09-03T05:30:01.373Z,17.00
2018-09-03T05:32:30.083Z,16.10
2018-09-03T05:34:58.825Z,16.02
2018-09-03T05:37:27.636Z,18.27
2018-09-03T05:39:56.377Z,18.25
2018-09-03T05:42:25.513Z,19.60
2018-09-03T05:44:54.161Z,22.77
2018-09-03T05:47:22.900Z,21.77
2018-09-03T05:49:51.747Z,19.25
2018-09-03T05:52:20.674Z,20.95
2018-09-03T05:54:49.504Z,20.85
2018-09-03T05:57:18.177Z,21.07
2018-09-03T05:59:46.763Z,18.90
2018-09-03T06:02:15.777Z,21.15
2018-09-03T06:04:44.812Z,19.60
2018-09-03T06:07:13.670Z,21.35
2018-09-03T06:09:42.420Z,20.57
2018-09-03T06:12:11.110Z,22.67
2018-09-03T06:14:39.662Z,24.47
2018-09-03T06:17:08.866Z,18.87
2018-09-03T06:19:37.700Z,22.40
2018-09-03T06:22:06.888Z,20.62
2018-09-03T06:24:35.484Z,23.07
2018-09-03T06:27:04.608Z,22.10
2018-09-03T06:29:33.883Z,23.57
2018-09-03T06:32:04.109Z,22.32
2018-09-03T06:34:33.557Z,21.05
2018-09-03T06:37:01.799Z,25.17
2018-09-03T06:39:31.977Z,21.02
2018-09-03T06:42:00.261Z,21.68
2018-09-03T06:44:29.223Z,22.13
2018-09-03T06:46:57.996Z,21.10
2018-09-03T06:49:27.835Z,19.87
2018-09-03T06:51:56.412Z,23.47
2018-09-03T06:54:24.584Z,19.57
2018-09-03T06:56:54.360Z,22.87
2018-09-03T06:59:23.067Z,21.75
2018-09-03T07:01:52.486Z,27.77
2018-09-03T07:04:21.780Z,23.12
2018-09-03T07:06:50.485Z,28.23
2018-09-03T07:09:20.832Z,28.27
2018-09-03T07:11:49.581Z,24.63
2018-09-03T07:14:18.991Z,26.75
2018-09-03T07:16:48.876Z,25.60
2018-09-03T07:19:17.795Z,24.80
2018-09-03T07:21:46.745Z,24.60
2018-09-03T07:24:15.433Z,24.95
2018-09-03T07:26:45.489Z,24.37
2018-09-03T07:29:16.942Z,24.32
2018-09-03T07:31:46.509Z,25.05
2018-09-03T07:34:15.029Z,23.80
2018-09-03T07:36:44.612Z,25.72
2018-09-03T07:39:13.228Z,24.20
2018-09-03T07:41:42.437Z,22.05
2018-09-03T07:44:11.078Z,23.87
2018-09-03T07:46:40.506Z,24.32
2018-09-03T07:49:08.931Z,26.42
2018-09-03T07:51:37.925Z,27.77
2018-09-03T07:54:07.649Z,26.30
2018-09-03T07:56:38.256Z,24.98
2018-09-03T07:59:07.453Z,24.90
2018-09-03T08:01:36.657Z,22.95
2018-09-03T08:04:20.690Z,23.75
2018-09-03T08:06:50.064Z,25.65
2018-09-03T08:09:18.808Z,25.85
2018-09-03T08:11:48.396Z,26.52
2018-09-03T08:14:16.921Z,22.67
2018-09-03T08:16:45.573Z,23.20
2018-09-03T08:19:14.623Z,25.00
2018-09-03T08:21:42.981Z,25.60
2018-09-03T08:24:11.756Z,26.17
2018-09-03T08:26:40.301Z,26.77
2018-09-03T08:29:09.035Z,23.75
2018-09-03T08:31:37.956Z,26.30
2018-09-03T08:34:08.219Z,24.02
2018-09-03T08:36:36.776Z,25.95
2018-09-03T08:39:06.874Z,24.43
2018-09-03T11:27:44.209Z,6.53
2018-09-03T11:30:34.283Z,4.95
2018-09-03T11:33:03.474Z,6.90
2018-09-03T11:38:23.946Z,6.35
2018-09-03T11:41:00.395Z,4.53
2018-09-03T11:43:29.886Z,4.78
2018-09-03T11:46:04.089Z,6.05
2018-09-03T11:48:44.434Z,8.05
2018-09-03T11:51:27.030Z,5.92
2018-09-03T11:54:08.270Z,8.83
2018-09-03T11:56:44.706Z,7.95
2018-09-03T11:59:18.813Z,8.65
2018-09-03T12:02:06.466Z,9.58
2018-09-03T12:04:41.414Z,9.43
2018-09-03T12:07:10.084Z,9.43
2018-09-03T12:09:44.486Z,10.45
2018-09-03T12:12:26.687Z,8.85
2018-09-03T12:14:58.153Z,10.38
2018-09-03T12:17:32.552Z,8.03
2018-09-03T12:20:00.973Z,9.63
2018-09-03T12:22:39.424Z,7.87
2018-09-03T12:25:08.622Z,8.55
2018-09-03T12:27:37.474Z,7.35
2018-09-03T12:30:09.461Z,8.53
2018-09-03T12:32:39.281Z,8.13
2018-09-03T12:35:14.092Z,9.88
2018-09-03T12:37:45.883Z,7.95
2018-09-03T12:40:14.564Z,9.03
2018-09-03T12:42:43.197Z,7.55
2018-09-03T12:45:12.234Z,9.30
2018-09-03T12:47:41.272Z,8.88
2018-09-03T12:50:10.533Z,9.85
2018-09-03T12:52:39.600Z,8.58
2018-09-03T12:55:09.568Z,8.70
2018-09-03T12:57:38.584Z,9.43
2018-09-03T13:00:08.498Z,8.03
2018-09-03T13:02:40.461Z,9.08
2018-09-03T13:05:09.089Z,8.60
2018-09-03T13:07:41.124Z,7.85
2018-09-03T13:10:10.158Z,8.33
2018-09-03T13:12:39.306Z,8.48
2018-09-03T13:15:09.525Z,8.93
2018-09-03T13:17:38.438Z,8.68
2018-09-03T13:20:08.661Z,8.25
2018-09-03T13:22:37.601Z,8.28
2018-09-03T13:25:06.432Z,9.15
2018-09-03T13:27:35.584Z,8.50
2018-09-03T13:30:05.509Z,9.40
2018-09-03T13:32:33.933Z,8.90
2018-09-03T13:35:03.737Z,8.80
2018-09-03T13:37:32.929Z,8.38
2018-09-03T13:40:01.868Z,8.70
2018-09-03T13:42:31.081Z,9.00
2018-09-03T13:45:00.222Z,9.33
2018-09-03T13:47:34.542Z,9.28
2018-09-03T13:50:04.105Z,9.20
2018-09-03T13:52:33.974Z,9.43
2018-09-03T13:55:05.203Z,9.40
2018-09-03T13:57:36.870Z,8.65
2018-09-03T14:00:06.876Z,10.53
2018-09-03T14:02:38.912Z,10.30
2018-09-03T14:05:13.233Z,9.78
2018-09-03T14:07:44.897Z,9.83
2018-09-03T14:10:13.787Z,9.70
2018-09-03T14:12:43.001Z,10.05
2018-09-03T14:15:11.661Z,10.18
2018-09-03T14:17:40.717Z,10.58
2018-09-03T14:20:17.079Z,9.43
2018-09-03T14:22:45.622Z,10.10
2018-09-03T14:25:14.453Z,11.45
2018-09-03T14:27:49.889Z,10.15
2018-09-03T14:30:18.960Z,10.70
2018-09-03T14:32:48.193Z,10.20
2018-09-03T14:35:18.172Z,9.75
2018-09-03T14:37:48.084Z,10.45
2018-09-03T14:40:17.281Z,10.98
2018-09-03T14:42:45.997Z,11.85
2018-09-03T14:45:21.068Z,12.60
2018-09-03T14:47:55.178Z,11.40
2018-09-03T14:50:23.881Z,11.57
2018-09-03T14:52:52.452Z,10.48
2018-09-03T14:55:21.636Z,10.32
2018-09-03T14:57:50.548Z,10.60
2018-09-03T15:00:19.624Z,12.18
2018-09-03T15:02:48.885Z,10.82
2018-09-03T15:05:18.496Z,10.75
2018-09-03T15:07:47.366Z,11.95
2018-09-03T15:10:16.219Z,11.15
2018-09-03T15:12:45.483Z,11.40
2018-09-03T15:15:19.705Z,10.58
2018-09-03T15:17:48.199Z,11.78
2018-09-03T15:20:17.477Z,12.47
2018-09-03T15:22:47.528Z,11.65
2018-09-03T15:25:19.274Z,12.37
2018-09-03T15:27:48.332Z,11.80
2018-09-03T15:30:26.919Z,10.98
2018-09-03T16:54:32.781Z,18.45
2018-09-03T16:57:04.425Z,13.20
2018-09-03T16:59:33.543Z,15.03
2018-09-03T17:02:01.857Z,13.53
2018-09-03T17:04:30.730Z,14.30
2018-09-03T17:06:59.384Z,14.00
2018-09-03T17:09:28.306Z,12.98
2018-09-03T17:11:57.195Z,14.95
2018-09-03T17:14:26.009Z,15.15
2018-09-03T17:16:54.804Z,18.10
2018-09-03T17:19:23.565Z,17.27
2018-09-03T17:21:52.259Z,18.42
2018-09-03T17:24:20.941Z,16.93
2018-09-03T17:26:49.837Z,14.98
2018-09-03T17:29:18.586Z,16.42
2018-09-03T17:31:47.229Z,14.35
2018-09-03T17:34:16.045Z,15.10
2018-09-03T17:36:45.005Z,13.95
2018-09-03T17:39:13.584Z,15.83
2018-09-03T17:41:42.398Z,17.90
2018-09-03T17:44:10.997Z,15.28
2018-09-03T17:46:39.556Z,15.93
2018-09-03T17:49:08.305Z,13.98
2018-09-03T17:51:37.134Z,15.43
2018-09-03T17:54:06.013Z,15.20
2018-09-03T17:56:34.838Z,18.73
2018-09-03T17:59:03.972Z,17.02
2018-09-03T18:01:32.537Z,16.40
2018-09-03T18:04:01.260Z,19.80
2018-09-03T18:06:30.097Z,19.27
2018-09-03T18:08:58.830Z,19.15
2018-09-03T18:11:27.704Z,16.55
2018-09-03T18:13:56.517Z,16.82
2018-09-03T18:16:25.879Z,17.67
2018-09-03T18:18:54.459Z,16.75
2018-09-03T18:21:23.518Z,19.80
2018-09-03T18:23:52.182Z,19.67
2018-09-03T18:26:20.973Z,18.20
2018-09-03T18:28:49.698Z,19.30
2018-09-03T18:31:21.636Z,18.23
2018-09-03T18:33:50.539Z,22.95
2018-09-03T18:36:19.309Z,19.10
2018-09-03T18:38:47.846Z,19.75
2018-09-03T18:41:16.767Z,23.67
2018-09-03T18:43:46.696Z,21.20
2018-09-03T18:46:15.368Z,20.48
2018-09-03T18:48:43.986Z,25.02
2018-09-03T18:51:12.839Z,20.72
2018-09-03T18:53:41.577Z,23.02
2018-09-03T18:56:13.403Z,22.98
2018-09-03T18:58:43.431Z,27.32
2018-09-03T19:01:11.966Z,24.32
2018-09-03T19:03:40.755Z,27.10
2018-09-03T19:06:10.491Z,25.85
2018-09-03T19:08:39.219Z,28.73
2018-09-03T19:11:13.389Z,26.35
2018-09-03T19:13:41.692Z,30.52
2018-09-03T19:16:10.571Z,25.88
2018-09-03T19:18:39.442Z,29.40
2018-09-03T19:21:08.181Z,25.30
2018-09-03T19:23:46.030Z,27.55
2018-09-03T19:26:17.352Z,27.65
2018-09-03T19:28:47.112Z,24.87
2018-09-03T19:31:15.904Z,26.90
2018-09-03T19:33:47.466Z,27.32
2018-09-03T19:36:16.611Z,27.60
2018-09-03T19:38:45.645Z,27.50
2018-09-03T19:41:13.956Z,29.60
2018-09-03T19:43:44.981Z,30.62
2018-09-03T19:46:25.849Z,30.92
2018-09-03T19:51:50.705Z,27.67
2018-09-03T19:54:19.284Z,30.62
2018-09-03T19:56:51.769Z,29.07
2018-09-03T19:59:20.202Z,33.48
2018-09-03T20:02:05.242Z,33.40
2018-09-03T20:04:39.636Z,28.32
2018-09-03T20:07:15.823Z,31.50
2018-09-03T20:09:44.964Z,31.55
2018-09-03T20:12:14.229Z,31.10
2018-09-03T20:14:43.338Z,33.67
2018-09-03T20:17:24.463Z,33.08
2018-09-03T20:20:11.804Z,31.68
2018-09-03T20:22:46.047Z,34.88
2018-09-03T20:28:09.836Z,32.15
2018-09-03T20:30:46.604Z,40.43
2018-09-03T20:33:15.877Z,36.45
2018-09-03T20:35:47.470Z,34.60
2018-09-03T20:38:33.930Z,35.08
2018-09-03T20:41:15.453Z,33.40
2018-09-03T20:43:51.304Z,35.83
2018-09-03T20:46:23.705Z,34.43
2018-09-03T20:48:52.666Z,34.33
2018-09-03T20:51:21.593Z,38.30
2018-09-03T20:53:53.229Z,36.60
2018-09-03T20:56:43.494Z,35.88
2018-09-03T20:59:20.532Z,34.27
2018-09-03T21:01:55.001Z,33.98
2018-09-03T21:04:23.970Z,39.33
2018-09-03T21:06:56.342Z,37.90
2018-09-03T21:09:25.129Z,40.63
2018-09-03T21:11:54.423Z,39.25
2018-09-03T21:14:34.503Z,41.15
2018-09-03T21:17:02.971Z,40.17
2018-09-03T21:19:44.820Z,43.83
2018-09-03T21:22:22.896Z,40.52
2018-09-03T21:24:51.697Z,36.08
2018-09-03T21:27:23.094Z,43.42
2018-09-03T21:29:57.694Z,37.45
2018-09-03T21:32:27.595Z,35.30
2018-09-03T21:34:56.136Z,35.35
2018-09-03T21:37:37.061Z,35.00
2018-09-03T21:40:19.565Z,42.83
2018-09-03T21:42:54.171Z,43.70
2018-09-03T21:45:28.816Z,40.75
2018-09-03T21:47:58.536Z,43.48
2018-09-03T21:50:28.100Z,43.15
2018-09-03T21:53:05.335Z,46.53
2018-09-03T21:55:43.544Z,43.48
2018-09-03T21:58:18.458Z,44.13
2018-09-03T22:00:52.672Z,45.03
2018-09-03T22:03:24.197Z,51.40
2018-09-03T22:06:13.139Z,46.08
2018-09-03T22:08:43.827Z,45.38
2018-09-03T22:11:12.980Z,47.40
2018-09-03T22:13:48.900Z,49.13
2018-09-03T22:16:20.572Z,46.30
2018-09-03T22:18:58.484Z,45.10
2018-09-03T22:21:44.605Z,41.20
2018-09-03T22:24:18.861Z,47.08
2018-09-03T22:26:50.604Z,45.10
2018-09-03T22:29:22.991Z,45.85
2018-09-03T22:31:53.393Z,46.08
2018-09-03T22:34:22.113Z,43.87
2018-09-03T22:36:56.164Z,45.15
2018-09-03T22:39:40.286Z,41.95
2018-09-03T22:42:12.256Z,49.40
2018-09-03T22:44:41.061Z,44.65
2018-09-03T22:47:12.736Z,40.35
2018-09-03T22:49:58.627Z,41.53
2018-09-03T22:52:27.236Z,39.67
2018-09-03T22:54:55.892Z,43.42
2018-09-03T22:57:27.808Z,36.95
2018-09-03T22:59:56.568Z,39.38
2018-09-03T23:02:25.471Z,44.03
2018-09-03T23:04:54.800Z,43.40
2018-09-03T23:07:23.354Z,38.58
2018-09-03T23:09:52.554Z,37.00
2018-09-03T23:12:25.199Z,42.70
2018-09-03T23:14:53.516Z,36.17
2018-09-03T23:17:43.716Z,39.08
2018-09-03T23:20:17.735Z,41.85
2018-09-03T23:22:47.826Z,40.12
2018-09-03T23:25:18.034Z,48.75
2018-09-03T23:27:53.768Z,43.42
2018-09-03T23:30:28.003Z,41.68
2018-09-03T23:32:57.563Z,39.18
2018-09-03T23:35:27.692Z,39.98
2018-09-03T23:37:58.359Z,45.33
2018-09-03T23:40:29.006Z,39.30
2018-09-03T23:43:10.167Z,42.13
2018-09-03T23:45:41.792Z,41.75
2018-09-03T23:48:20.545Z,45.28
2018-09-03T23:51:00.781Z,41.30
2018-09-03T23:53:30.700Z,39.20
2018-09-03T23:56:02.733Z,41.37
2018-09-03T23:58:31.449Z,41.00
